Time;durP1;ratioP1;P1;durP2;ratioP2;P2;SDS_P1;SDS_P2;PMS_P1;PMS_P2;Temp;Humidity;BMP_temperature;BMP_pressure;BME280_temperature;BME280_humidity;BME280_pressure;Samples;Min_cycle;Max_cycle;Signal;HPM_P1;HPM_P2
2022/06/11 00:02:27;;;;;;;1.83;1.57;;;17.50;99.90;;;;;;5135247;27;20439;-64
2022/06/11 00:05:00;;;;;;;0.90;0.90;;;17.40;99.90;;;;;;5144395;27;20470;-65
2022/06/11 00:07:31;;;;;;;1.40;1.30;;;17.30;99.90;;;;;;5144627;27;20443;-64
2022/06/11 00:10:05;;;;;;;0.93;0.83;;;17.10;99.90;;;;;;5143273;27;20455;-64
2022/06/11 00:12:39;;;;;;;1.17;1.03;;;17.10;99.90;;;;;;5135815;27;20552;-64
2022/06/11 00:15:13;;;;;;;1.10;0.93;;;17.00;99.90;;;;;;5133054;27;20493;-64
2022/06/11 00:17:44;;;;;;;1.50;1.40;;;16.90;99.90;;;;;;5143132;27;20464;-64
2022/06/11 00:20:15;;;;;;;1.30;1.20;;;16.90;99.90;;;;;;5133321;27;20535;-63
2022/06/11 00:22:46;;;;;;;1.80;1.30;;;17.00;99.90;;;;;;5141294;27;20504;-63
2022/06/11 00:25:27;;;;;;;1.50;1.37;;;17.20;99.90;;;;;;5125322;27;20465;-63
2022/06/11 00:28:02;;;;;;;1.50;0.90;;;17.20;99.90;;;;;;5143154;27;20419;-65
2022/06/11 00:30:37;;;;;;;1.43;1.30;;;17.20;99.90;;;;;;5138952;27;20468;-63
2022/06/11 00:33:08;;;;;;;0.73;0.67;;;17.20;99.90;;;;;;5140573;27;20531;-63
2022/06/11 00:35:41;;;;;;;0.80;0.80;;;17.20;99.90;;;;;;5144653;27;20530;-65
2022/06/11 00:38:12;;;;;;;0.80;0.80;;;17.00;99.90;;;;;;5131236;27;20442;-62
2022/06/11 00:40:46;;;;;;;0.70;0.70;;;16.80;99.90;;;;;;5143929;27;20480;-63
2022/06/11 00:43:20;;;;;;;1.03;0.93;;;16.80;99.90;;;;;;5144781;27;20536;-62
2022/06/11 00:46:01;;;;;;;1.03;0.93;;;16.90;99.90;;;;;;5125352;28;20458;-63
2022/06/11 00:48:35;;;;;;;3.47;0.83;;;17.00;99.90;;;;;;5142353;27;20449;-63
2022/06/11 00:51:15;;;;;;;0.97;0.90;;;16.90;99.90;;;;;;5143534;27;20436;-64
2022/06/11 00:53:50;;;;;;;1.00;0.90;;;16.80;99.90;;;;;;5132825;27;20440;-62
2022/06/11 00:56:24;;;;;;;0.90;0.90;;;16.80;99.90;;;;;;5143915;27;20426;-61
2022/06/11 00:58:59;;;;;;;1.30;1.20;;;16.80;99.90;;;;;;5143461;27;20440;-61
2022/06/11 01:01:32;;;;;;;1.20;1.10;;;16.80;99.90;;;;;;5145018;27;20432;-62
2022/06/11 01:04:27;;;;;;;1.80;1.30;;;16.80;99.90;;;;;;5144671;27;20469;-60
2022/06/11 01:07:06;;;;;;;1.20;1.10;;;16.60;99.90;;;;;;5145463;27;20433;-60
2022/06/11 01:09:45;;;;;;;1.07;0.97;;;16.30;99.90;;;;;;5143591;27;20471;-61
2022/06/11 01:12:24;;;;;;;1.10;1.00;;;16.20;99.90;;;;;;5141446;27;20463;-60
2022/06/11 01:15:03;;;;;;;0.80;0.80;;;16.00;99.90;;;;;;5145051;27;21314;-61
2022/06/11 01:17:45;;;;;;;1.00;0.77;;;16.10;99.90;;;;;;5144727;27;20506;-61
2022/06/11 01:20:46;;;;;;;0.73;0.60;;;16.00;99.90;;;;;;5127194;27;20455;-61
2022/06/11 01:23:49;;;;;;;0.80;0.80;;;15.90;99.90;;;;;;5144960;27;20444;-61
2022/06/11 01:26:54;;;;;;;1.20;1.10;;;16.00;99.90;;;;;;5100342;27;20423;-63
2022/06/11 01:29:50;;;;;;;1.17;1.07;;;16.00;99.90;;;;;;5139245;27;20445;-61
2022/06/11 01:32:27;;;;;;;0.70;0.70;;;16.10;99.90;;;;;;5138479;27;20420;-61
2022/06/11 01:35:19;;;;;;;1.40;1.20;;;16.20;99.90;;;;;;5144684;27;20450;-60
2022/06/11 01:37:55;;;;;;;1.60;1.30;;;16.20;99.90;;;;;;5145098;27;20437;-61
2022/06/11 01:40:37;;;;;;;1.40;1.30;;;16.20;99.90;;;;;;5141929;27;20451;-60
2022/06/11 01:43:22;;;;;;;1.70;1.60;;;16.20;99.90;;;;;;5137678;27;20544;-60
2022/06/11 01:46:02;;;;;;;1.40;1.07;;;16.10;99.90;;;;;;5137580;27;20456;-60
2022/06/11 01:48:34;;;;;;;2.97;1.77;;;16.10;99.90;;;;;;5144144;27;20515;-60
2022/06/11 01:51:15;;;;;;;2.10;1.90;;;16.10;99.90;;;;;;5143465;27;20453;-60
2022/06/11 01:54:14;;;;;;;1.50;1.30;;;16.00;99.90;;;;;;5143674;27;20448;-62
2022/06/11 01:57:25;;;;;;;1.67;1.20;;;16.00;99.90;;;;;;5142060;27;20475;-62
2022/06/11 02:00:10;;;;;;;1.53;1.43;;;15.90;99.90;;;;;;5143213;27;20447;-61
2022/06/11 02:03:11;;;;;;;1.20;1.07;;;15.90;99.90;;;;;;5134591;27;20445;-60
2022/06/11 02:05:55;;;;;;;1.73;1.43;;;15.90;99.90;;;;;;5138900;27;20476;-61
2022/06/11 02:08:31;;;;;;;2.03;1.53;;;15.80;99.90;;;;;;5142514;27;20444;-61
2022/06/11 02:11:08;;;;;;;1.37;1.27;;;15.80;99.90;;;;;;5140937;27;20769;-62
2022/06/11 02:13:42;;;;;;;2.00;1.40;;;15.80;99.90;;;;;;5144025;27;20619;-62
2022/06/11 02:16:19;;;;;;;1.67;1.57;;;15.70;99.90;;;;;;5143264;27;20451;-63
2022/06/11 02:18:53;;;;;;;1.70;1.60;;;15.70;99.90;;;;;;5138929;27;20471;-66
2022/06/11 02:21:30;;;;;;;1.50;1.30;;;15.70;99.90;;;;;;5143414;27;20448;-65
2022/06/11 02:24:05;;;;;;;1.70;1.60;;;15.70;99.90;;;;;;5142951;27;20932;-65
2022/06/11 02:26:42;;;;;;;1.90;1.80;;;15.70;99.90;;;;;;5144055;27;20440;-66
2022/06/11 02:29:15;;;;;;;2.97;2.17;;;15.70;99.90;;;;;;5143707;27;20479;-64
2022/06/11 02:31:49;;;;;;;1.43;1.33;;;15.70;99.90;;;;;;5143158;27;20445;-63
2022/06/11 02:34:23;;;;;;;2.27;1.67;;;15.70;99.90;;;;;;5143411;27;20509;-64
2022/06/11 02:37:00;;;;;;;1.10;1.10;;;15.80;99.90;;;;;;5142700;27;20452;-66
2022/06/11 02:39:35;;;;;;;1.97;1.10;;;15.70;99.90;;;;;;5142761;27;20444;-65
2022/06/11 02:42:09;;;;;;;2.13;1.37;;;15.70;99.90;;;;;;5143309;27;20463;-65
2022/06/11 02:44:39;;;;;;;1.17;1.10;;;15.80;99.90;;;;;;5143460;27;20456;-65
2022/06/11 02:47:12;;;;;;;1.53;1.43;;;15.70;99.90;;;;;;5143157;27;20436;-64
2022/06/11 02:49:45;;;;;;;0.80;0.80;;;15.70;99.90;;;;;;5141360;27;20460;-65
2022/06/11 02:52:18;;;;;;;1.33;1.07;;;15.70;99.90;;;;;;5136352;27;20432;-64
2022/06/11 02:54:51;;;;;;;1.90;1.50;;;15.70;99.90;;;;;;5141962;28;20613;-65
2022/06/11 03:04:31;;;;;;;1.47;1.20;;;15.60;99.90;;;;;;5128475;28;20491;-66
2022/06/11 03:07:04;;;;;;;1.40;1.17;;;15.60;99.90;;;;;;5143249;27;20877;-65
2022/06/11 03:10:07;;;;;;;1.10;1.00;;;15.60;99.90;;;;;;5137064;27;20446;-64
2022/06/11 03:12:51;;;;;;;1.17;0.90;;;15.60;99.90;;;;;;5131353;27;20467;-64
2022/06/11 03:15:25;;;;;;;1.20;1.10;;;15.60;99.90;;;;;;5142274;27;20756;-64
2022/06/11 03:17:59;;;;;;;1.20;1.10;;;15.60;99.90;;;;;;5140750;28;20458;-64
2022/06/11 03:20:32;;;;;;;1.10;1.00;;;15.60;99.90;;;;;;5143004;28;20826;-65
2022/06/11 03:23:08;;;;;;;0.97;0.97;;;15.60;99.90;;;;;;5142344;27;20459;-65
2022/06/11 03:25:41;;;;;;;1.40;1.27;;;15.60;99.90;;;;;;5141838;28;20491;-64
2022/06/11 03:28:15;;;;;;;1.57;1.00;;;15.60;99.90;;;;;;5142320;28;20427;-65
2022/06/11 03:30:47;;;;;;;1.30;1.20;;;15.60;99.90;;;;;;5142669;28;20468;-66
2022/06/11 03:33:18;;;;;;;1.13;1.07;;;15.60;99.90;;;;;;5138528;28;20548;-64
2022/06/11 03:35:50;;;;;;;1.30;1.20;;;15.50;99.90;;;;;;5142232;27;20472;-64
2022/06/11 03:38:25;;;;;;;1.53;1.10;;;15.50;99.90;;;;;;5142868;27;20445;-64
2022/06/11 03:40:56;;;;;;;1.53;1.30;;;15.40;99.90;;;;;;5138965;27;20433;-64
2022/06/11 03:43:28;;;;;;;1.27;1.17;;;15.40;99.90;;;;;;5139991;27;20476;-64
2022/06/11 03:45:59;;;;;;;1.50;1.40;;;15.40;99.90;;;;;;5139466;28;20476;-65
2022/06/11 03:48:30;;;;;;;1.17;1.07;;;15.40;99.90;;;;;;5141619;27;20464;-65
2022/06/11 03:51:02;;;;;;;1.23;1.13;;;15.40;99.90;;;;;;5141994;27;20502;-65
2022/06/11 03:53:35;;;;;;;1.30;1.10;;;15.40;99.90;;;;;;5142789;27;20467;-65
2022/06/11 03:56:09;;;;;;;0.67;0.67;;;15.40;99.90;;;;;;5141523;27;20459;-64
2022/06/11 03:58:40;;;;;;;1.00;0.90;;;15.40;99.90;;;;;;5142721;27;20537;-63
2022/06/11 04:01:19;;;;;;;0.90;0.90;;;15.40;99.90;;;;;;5133039;28;20463;-64
2022/06/11 04:03:53;;;;;;;1.07;0.97;;;15.40;99.90;;;;;;5143002;27;20463;-65
2022/06/11 04:06:27;;;;;;;1.40;1.10;;;15.40;99.90;;;;;;5141158;27;20469;-64
2022/06/11 04:09:00;;;;;;;1.10;1.10;;;15.40;99.90;;;;;;5145344;27;20484;-64
2022/06/11 04:11:31;;;;;;;1.37;1.27;;;15.40;99.90;;;;;;5138507;27;20575;-64
2022/06/11 04:14:02;;;;;;;1.30;1.20;;;15.30;99.90;;;;;;5146050;27;20468;-64
2022/06/11 04:16:37;;;;;;;0.90;0.90;;;15.30;99.90;;;;;;5145829;27;20440;-65
2022/06/11 04:19:10;;;;;;;1.43;1.33;;;15.30;99.90;;;;;;5144542;27;20462;-64
2022/06/11 04:21:41;;;;;;;1.20;1.10;;;15.20;99.90;;;;;;5145868;27;21004;-64
2022/06/11 04:24:15;;;;;;;1.83;1.73;;;15.30;99.90;;;;;;5143967;27;20461;-65
2022/06/11 04:26:49;;;;;;;1.17;1.03;;;15.20;99.90;;;;;;5141367;27;20496;-64
2022/06/11 04:29:23;;;;;;;1.40;1.30;;;15.10;99.90;;;;;;5144009;27;20455;-63
2022/06/11 04:31:56;;;;;;;1.40;1.30;;;15.20;99.90;;;;;;5138724;27;20456;-63
2022/06/11 04:34:29;;;;;;;1.03;1.03;;;15.10;99.90;;;;;;5144469;27;21064;-63
2022/06/11 04:37:00;;;;;;;0.60;0.60;;;15.10;99.90;;;;;;5141199;27;20449;-64
2022/06/11 04:39:34;;;;;;;0.90;0.90;;;15.20;99.90;;;;;;5141759;27;20490;-63
2022/06/11 04:42:06;;;;;;;1.00;0.90;;;15.10;99.90;;;;;;5143475;27;20453;-64
2022/06/11 04:44:37;;;;;;;0.80;0.80;;;15.10;99.90;;;;;;5139890;27;21026;-64
2022/06/11 04:47:09;;;;;;;0.90;0.90;;;15.10;99.90;;;;;;5136132;27;20487;-65
2022/06/11 04:49:59;;;;;;;1.30;1.17;;;15.20;99.90;;;;;;5145158;27;20453;-64
2022/06/11 04:52:31;;;;;;;1.40;1.30;;;15.30;99.90;;;;;;5142244;27;20548;-63
2022/06/11 04:55:04;;;;;;;1.17;1.07;;;15.30;99.90;;;;;;5144114;27;20423;-63
2022/06/11 04:57:35;;;;;;;1.53;1.20;;;15.20;99.90;;;;;;5145608;27;20459;-64
2022/06/11 05:00:08;;;;;;;1.00;1.00;;;15.20;99.90;;;;;;5145533;27;20460;-64
2022/06/11 05:09:36;;;;;;;1.23;1.13;;;15.20;99.90;;;;;;5092946;28;20539;-64
2022/06/11 05:12:09;;;;;;;0.73;0.70;;;15.30;99.90;;;;;;5101829;28;20455;-63
2022/06/11 05:14:40;;;;;;;0.80;0.80;;;15.30;99.90;;;;;;5101570;28;20518;-64
2022/06/11 05:17:27;;;;;;;1.00;1.00;;;15.30;99.90;;;;;;5101717;28;20447;-63
2022/06/11 05:20:47;;;;;;;1.23;0.90;;;15.30;99.90;;;;;;5073988;28;20503;-63
2022/06/11 05:23:18;;;;;;;1.17;0.87;;;15.20;99.90;;;;;;5099644;28;20462;-63
2022/06/11 05:25:49;;;;;;;1.27;0.83;;;15.20;99.90;;;;;;5096159;28;20563;-63
2022/06/11 05:28:24;;;;;;;0.80;0.80;;;15.20;99.90;;;;;;5099424;28;20454;-63
2022/06/11 05:30:56;;;;;;;0.80;0.80;;;15.10;99.90;;;;;;5098077;28;20458;-64
2022/06/11 05:33:27;;;;;;;0.70;0.70;;;15.10;99.90;;;;;;5096115;28;20450;-63
2022/06/11 05:35:58;;;;;;;0.70;0.43;;;15.10;99.90;;;;;;5104902;27;21013;-64
2022/06/11 05:38:30;;;;;;;0.83;0.83;;;15.10;99.90;;;;;;5140665;27;20453;-63
2022/06/11 05:41:03;;;;;;;1.03;0.80;;;15.10;99.90;;;;;;5142772;27;20453;-63
2022/06/11 05:43:36;;;;;;;0.70;0.70;;;15.00;99.90;;;;;;5134150;27;20675;-63
2022/06/11 05:46:12;;;;;;;1.40;1.40;;;15.10;99.90;;;;;;5138627;27;20492;-64
2022/06/11 05:48:50;;;;;;;1.43;0.70;;;15.10;99.90;;;;;;5136698;27;20490;-64
2022/06/11 05:51:27;;;;;;;0.73;0.70;;;15.10;99.90;;;;;;5143828;27;20456;-64
2022/06/11 05:53:59;;;;;;;0.70;0.70;;;15.20;99.90;;;;;;5127200;27;20795;-65
2022/06/11 05:56:30;;;;;;;0.70;0.70;;;15.10;99.90;;;;;;5144528;27;20459;-64
2022/06/11 05:59:05;;;;;;;0.60;0.60;;;15.10;99.90;;;;;;5135604;27;22112;-64
2022/06/11 06:01:41;;;;;;;1.07;0.60;;;15.10;99.90;;;;;;5135596;27;20915;-64
2022/06/11 06:04:12;;;;;;;1.53;1.07;;;15.10;99.90;;;;;;5135941;27;20830;-63
2022/06/11 06:06:48;;;;;;;0.67;0.57;;;15.10;99.90;;;;;;5143184;27;20545;-63
2022/06/11 06:09:19;;;;;;;0.70;0.60;;;15.10;99.90;;;;;;5135898;27;20457;-64
2022/06/11 06:11:50;;;;;;;1.00;0.60;;;15.10;99.90;;;;;;5134536;27;20457;-64
2022/06/11 06:14:25;;;;;;;0.63;0.60;;;15.20;99.90;;;;;;5141602;27;20494;-64
2022/06/11 06:16:56;;;;;;;1.17;0.67;;;15.20;99.90;;;;;;5136646;27;20467;-64
2022/06/11 06:19:46;;;;;;;0.80;0.70;;;15.20;99.90;;;;;;5132946;27;20555;-64
2022/06/11 06:22:17;;;;;;;1.53;0.70;;;15.30;99.90;;;;;;5144180;27;20448;-64
2022/06/11 06:24:48;;;;;;;0.90;0.90;;;15.30;99.90;;;;;;5142498;27;20456;-64
2022/06/11 06:27:18;;;;;;;0.60;0.60;;;15.20;99.90;;;;;;5131156;27;20461;-66
2022/06/11 06:29:52;;;;;;;1.23;0.60;;;15.30;99.90;;;;;;5134836;27;20553;-64
2022/06/11 06:32:23;;;;;;;0.87;0.67;;;15.30;99.90;;;;;;5141229;27;20460;-64
2022/06/11 06:34:56;;;;;;;1.17;0.70;;;15.30;99.90;;;;;;5134371;27;20495;-64
2022/06/11 06:37:26;;;;;;;1.50;0.77;;;15.30;99.90;;;;;;5130589;27;20465;-64
2022/06/11 06:39:57;;;;;;;0.70;0.70;;;15.20;99.90;;;;;;5138286;27;20466;-63
2022/06/11 06:42:28;;;;;;;1.10;0.87;;;15.30;99.90;;;;;;5143783;27;20440;-64
2022/06/11 06:45:01;;;;;;;0.87;0.83;;;15.30;99.90;;;;;;5132936;27;20458;-64
2022/06/11 06:47:31;;;;;;;1.00;0.80;;;15.30;99.90;;;;;;5131768;27;20971;-63
2022/06/11 06:50:02;;;;;;;1.33;1.20;;;15.30;99.90;;;;;;5135372;27;20464;-64
2022/06/11 06:52:33;;;;;;;3.10;2.80;;;15.20;99.90;;;;;;5131304;28;20457;-64
2022/06/11 06:55:04;;;;;;;3.17;2.87;;;15.30;99.90;;;;;;5135505;27;21003;-63
2022/06/11 06:57:35;;;;;;;3.10;2.17;;;15.30;99.90;;;;;;5129125;27;20445;-63
2022/06/11 07:00:11;;;;;;;1.87;1.77;;;15.20;99.90;;;;;;5141696;27;20550;-64
2022/06/11 07:02:41;;;;;;;3.80;1.67;;;15.20;99.90;;;;;;5141838;27;20464;-63
2022/06/11 07:05:13;;;;;;;0.90;0.90;;;15.20;99.90;;;;;;5136655;27;20461;-64
2022/06/11 07:07:47;;;;;;;1.23;1.13;;;15.20;99.90;;;;;;5132181;27;21010;-64
2022/06/11 07:10:19;;;;;;;1.23;1.10;;;15.20;99.90;;;;;;5135934;27;20460;-64
2022/06/11 07:12:50;;;;;;;1.27;0.83;;;15.20;99.90;;;;;;5136581;27;20461;-64
2022/06/11 07:15:23;;;;;;;0.80;0.70;;;15.20;99.90;;;;;;5139012;27;20471;-64
2022/06/11 07:17:57;;;;;;;1.00;0.80;;;15.20;99.90;;;;;;5139403;27;20488;-64
2022/06/11 07:20:31;;;;;;;1.33;0.90;;;15.20;99.90;;;;;;5122917;27;20460;-63
2022/06/11 07:23:07;;;;;;;1.00;0.97;;;15.10;99.90;;;;;;5135171;27;20460;-64
2022/06/11 07:25:41;;;;;;;0.90;0.90;;;15.10;99.90;;;;;;5140202;27;20457;-64
2022/06/11 07:28:47;;;;;;;0.97;0.97;;;15.10;99.90;;;;;;5142082;27;20469;-64
2022/06/11 07:31:26;;;;;;;1.03;0.93;;;15.20;99.90;;;;;;5127377;27;20453;-64
2022/06/11 07:33:57;;;;;;;1.03;0.93;;;15.20;99.90;;;;;;5138784;27;20957;-64
2022/06/11 07:36:28;;;;;;;0.80;0.80;;;15.20;99.90;;;;;;5133781;27;20772;-64
2022/06/11 07:38:59;;;;;;;1.10;1.00;;;15.20;99.90;;;;;;5138975;27;20525;-64
2022/06/11 07:41:30;;;;;;;1.17;1.07;;;15.30;99.90;;;;;;5133221;27;20427;-64
2022/06/11 07:44:01;;;;;;;1.07;1.07;;;15.20;99.90;;;;;;5144762;27;20782;-65
2022/06/11 07:46:33;;;;;;;1.60;1.40;;;15.20;99.90;;;;;;5132155;27;20507;-64
2022/06/11 07:49:04;;;;;;;1.33;1.20;;;15.20;99.90;;;;;;5138617;27;20453;-64
2022/06/11 07:51:35;;;;;;;2.50;1.30;;;15.10;99.90;;;;;;5136769;27;20454;-64
2022/06/11 07:54:07;;;;;;;1.43;1.33;;;15.20;99.90;;;;;;5140909;27;20471;-64
2022/06/11 07:56:38;;;;;;;1.30;1.20;;;15.20;99.90;;;;;;5132029;27;20457;-64
2022/06/11 07:59:09;;;;;;;1.80;1.70;;;15.30;99.90;;;;;;5131854;27;20464;-64
2022/06/11 08:01:42;;;;;;;1.67;1.53;;;15.30;99.90;;;;;;5141870;27;20449;-63
2022/06/11 08:04:15;;;;;;;1.97;1.87;;;15.30;99.90;;;;;;5133313;27;20459;-64
2022/06/11 08:06:46;;;;;;;1.63;1.50;;;15.20;99.90;;;;;;5142502;27;20463;-63
2022/06/11 08:09:16;;;;;;;1.83;1.63;;;15.30;99.90;;;;;;5142371;27;20768;-63
2022/06/11 08:11:48;;;;;;;1.90;1.43;;;15.30;99.90;;;;;;5142927;27;20522;-63
2022/06/11 08:14:18;;;;;;;1.53;1.43;;;15.20;99.90;;;;;;5143077;27;20803;-64
2022/06/11 08:16:51;;;;;;;1.50;1.40;;;15.20;99.90;;;;;;5146387;27;20448;-63
2022/06/11 08:19:22;;;;;;;1.53;1.43;;;15.20;99.90;;;;;;5145509;27;20793;-64
2022/06/11 08:21:53;;;;;;;2.20;1.67;;;15.20;99.90;;;;;;5142807;27;20985;-64
2022/06/11 08:24:24;;;;;;;2.30;1.80;;;15.20;99.90;;;;;;5143500;27;20484;-64
2022/06/11 08:26:56;;;;;;;1.97;1.77;;;15.10;99.90;;;;;;5136591;27;20464;-64
2022/06/11 08:29:35;;;;;;;1.77;1.67;;;15.20;99.90;;;;;;5141701;27;20576;-64
2022/06/11 08:32:12;;;;;;;1.90;1.80;;;15.20;99.90;;;;;;5135557;27;20471;-64
2022/06/11 08:34:48;;;;;;;2.17;1.97;;;15.20;99.90;;;;;;5134834;27;20488;-64
2022/06/11 08:37:20;;;;;;;1.70;1.60;;;15.20;99.90;;;;;;5138634;27;20536;-64
2022/06/11 08:39:50;;;;;;;2.10;1.90;;;15.20;99.90;;;;;;5128284;27;20482;-64
2022/06/11 08:42:36;;;;;;;1.70;1.60;;;15.20;99.90;;;;;;5132872;27;20967;-63
2022/06/11 08:45:15;;;;;;;2.00;1.80;;;15.30;99.90;;;;;;5133398;27;20477;-64
2022/06/11 08:47:56;;;;;;;1.30;1.20;;;15.20;99.90;;;;;;5133673;27;20491;-63
2022/06/11 08:50:37;;;;;;;2.07;1.77;;;15.20;99.90;;;;;;5129127;27;20473;-63
2022/06/11 08:53:13;;;;;;;1.53;1.43;;;15.20;99.90;;;;;;5138806;27;20453;-63
2022/06/11 08:59:59;;;;;;;2.07;1.87;;;15.30;99.90;;;;;;5074893;28;20486;-64
2022/06/11 09:03:00;;;;;;;2.00;1.37;;;15.30;99.90;;;;;;5080605;28;20462;-63
2022/06/11 09:09:33;;;;;;;1.80;1.50;;;15.30;99.90;;;;;;5070988;28;20541;-63
2022/06/11 09:12:29;;;;;;;2.10;1.80;;;15.30;99.90;;;;;;5078010;28;20552;-63
2022/06/11 09:15:19;;;;;;;1.60;1.50;;;15.30;99.90;;;;;;5080063;28;20430;-63
2022/06/11 09:18:10;;;;;;;1.10;1.00;;;15.20;99.90;;;;;;5095051;28;20462;-63
2022/06/11 09:20:54;;;;;;;2.33;1.87;;;15.20;99.90;;;;;;5095420;28;20828;-64
2022/06/11 09:24:02;;;;;;;2.43;2.00;;;15.20;99.90;;;;;;5100852;28;20458;-64
2022/06/11 09:26:45;;;;;;;2.33;1.90;;;15.20;99.90;;;;;;5091008;28;20450;-63
2022/06/11 09:29:29;;;;;;;2.20;1.90;;;15.30;99.90;;;;;;5110052;27;20488;-63
2022/06/11 09:32:08;;;;;;;2.53;2.33;;;15.40;99.90;;;;;;5141995;27;20469;-64
2022/06/11 09:34:47;;;;;;;2.23;2.03;;;15.40;99.90;;;;;;5142085;27;20456;-64
2022/06/11 09:37:19;;;;;;;2.53;2.20;;;15.40;99.90;;;;;;5126691;27;20819;-63
2022/06/11 09:39:59;;;;;;;2.93;2.40;;;15.40;99.90;;;;;;5142084;27;20445;-64
2022/06/11 09:42:47;;;;;;;2.20;2.00;;;15.40;99.90;;;;;;5139321;27;20467;-63
2022/06/11 09:45:26;;;;;;;2.23;1.57;;;15.40;99.90;;;;;;5132410;27;20457;-64
2022/06/11 09:48:05;;;;;;;2.03;1.83;;;15.40;99.90;;;;;;5141836;27;20484;-63
2022/06/11 09:50:51;;;;;;;2.17;1.90;;;15.40;99.90;;;;;;5141782;27;20460;-63
2022/06/11 09:53:48;;;;;;;2.27;2.07;;;15.40;99.90;;;;;;5141877;27;20449;-63
2022/06/11 09:56:26;;;;;;;1.57;1.47;;;15.40;99.90;;;;;;5139703;27;20461;-63
2022/06/11 09:59:08;;;;;;;1.60;1.50;;;15.40;99.90;;;;;;5139077;27;20464;-63
2022/06/11 10:02:16;;;;;;;1.83;1.73;;;15.40;99.90;;;;;;5140341;27;20468;-63
2022/06/11 10:08:03;;;;;;;1.60;1.50;;;15.40;99.90;;;;;;5111504;27;20481;-64
2022/06/11 10:17:36;;;;;;;1.30;1.20;;;15.40;99.90;;;;;;5056060;28;20460;-63
2022/06/11 10:20:14;;;;;;;1.50;1.40;;;15.30;99.90;;;;;;5063434;28;20547;-63
2022/06/11 10:22:52;;;;;;;1.87;1.77;;;15.30;99.90;;;;;;5058000;28;20443;-63
2022/06/11 10:25:29;;;;;;;1.87;1.73;;;15.40;99.90;;;;;;5056402;28;20976;-63
2022/06/11 10:28:06;;;;;;;2.10;1.73;;;15.40;99.90;;;;;;5060076;28;20467;-63
2022/06/11 10:30:46;;;;;;;3.30;1.40;;;15.50;99.90;;;;;;5052620;28;20940;-63
2022/06/11 10:33:24;;;;;;;1.60;1.50;;;15.50;99.90;;;;;;5055966;28;20465;-63
2022/06/11 10:36:01;;;;;;;1.83;1.73;;;15.60;99.90;;;;;;5053440;28;20484;-63
2022/06/11 10:38:44;;;;;;;2.00;1.80;;;15.60;99.90;;;;;;5061379;28;20519;-64
2022/06/11 10:41:24;;;;;;;1.90;1.80;;;15.50;99.90;;;;;;5054953;28;20822;-63
2022/06/11 10:44:07;;;;;;;1.87;1.77;;;15.50;99.90;;;;;;5058872;28;20819;-64
2022/06/11 10:46:40;;;;;;;1.97;1.50;;;15.50;99.90;;;;;;5059290;28;20448;-64
2022/06/11 10:49:15;;;;;;;1.80;1.60;;;15.40;99.90;;;;;;5058969;28;20484;-64
2022/06/11 10:51:53;;;;;;;2.37;1.77;;;15.50;99.90;;;;;;5057781;28;20852;-65
2022/06/11 10:54:26;;;;;;;2.60;1.87;;;15.50;99.90;;;;;;5093346;28;20556;-63
2022/06/11 10:57:03;;;;;;;2.70;1.70;;;15.40;99.90;;;;;;5140003;27;20476;-64
2022/06/11 10:59:37;;;;;;;2.03;1.70;;;15.50;99.90;;;;;;5139391;27;20487;-64
2022/06/11 11:02:25;;;;;;;2.40;1.93;;;15.40;99.90;;;;;;5144037;27;20444;-64
2022/06/11 11:05:02;;;;;;;3.27;2.10;;;15.50;99.90;;;;;;5139565;27;20457;-64
2022/06/11 11:07:54;;;;;;;2.03;1.83;;;15.40;99.90;;;;;;5142883;27;20428;-63
2022/06/11 11:10:40;;;;;;;4.53;1.80;;;15.40;99.90;;;;;;5142391;27;20473;-64
2022/06/11 11:13:29;;;;;;;2.37;1.90;;;15.40;99.90;;;;;;5142151;27;20440;-64
2022/06/11 11:16:19;;;;;;;2.10;1.90;;;15.40;99.90;;;;;;5146782;27;20774;-64
2022/06/11 11:19:03;;;;;;;2.37;2.10;;;15.40;99.90;;;;;;5146477;27;20445;-64
2022/06/11 11:21:38;;;;;;;2.10;1.83;;;15.50;99.90;;;;;;5138521;27;20444;-64
2022/06/11 11:24:15;;;;;;;2.13;1.93;;;15.50;99.90;;;;;;5145939;27;21314;-64
2022/06/11 11:26:55;;;;;;;2.20;1.60;;;15.40;99.90;;;;;;5146250;27;20501;-64
2022/06/11 11:29:32;;;;;;;2.53;1.70;;;15.40;99.90;;;;;;5146495;27;20499;-64
2022/06/11 11:32:35;;;;;;;2.20;1.70;;;15.30;99.90;;;;;;5146635;27;20433;-64
2022/06/11 11:36:26;;;;;;;2.30;2.07;;;15.40;99.90;;;;;;5145648;27;20470;-64
2022/06/11 11:39:25;;;;;;;2.03;1.83;;;15.40;99.90;;;;;;5145477;27;20452;-64
2022/06/11 11:42:13;;;;;;;2.10;1.60;;;15.40;99.90;;;;;;5146402;27;20453;-64
2022/06/11 11:45:22;;;;;;;1.50;1.40;;;15.40;99.90;;;;;;5145843;27;20445;-64
2022/06/11 11:48:04;;;;;;;2.00;1.30;;;15.40;99.90;;;;;;5139604;27;20469;-64
2022/06/11 11:53:52;;;;;;;1.50;1.40;;;15.40;99.90;;;;;;5136864;27;20550;-63
2022/06/11 11:56:28;;;;;;;1.87;1.77;;;15.40;99.90;;;;;;5145983;27;20448;-63
2022/06/11 11:59:04;;;;;;;1.80;1.47;;;15.40;99.90;;;;;;5135102;27;20452;-64
2022/06/11 12:01:42;;;;;;;1.90;1.50;;;15.40;99.90;;;;;;5146810;27;20443;-63
2022/06/11 12:04:21;;;;;;;2.27;1.23;;;15.50;99.90;;;;;;5146128;27;20449;-63
2022/06/11 12:06:57;;;;;;;2.17;1.70;;;15.50;99.90;;;;;;5145288;27;20526;-63
2022/06/11 12:09:31;;;;;;;2.00;1.33;;;15.50;99.90;;;;;;5145078;27;20483;-63
2022/06/11 12:15:59;;;;;;;1.60;1.50;;;15.60;99.90;;;;;;5102180;28;20453;-63
2022/06/11 12:18:43;;;;;;;1.83;1.50;;;15.50;99.90;;;;;;5099526;28;20446;-63
2022/06/11 12:21:41;;;;;;;1.70;1.60;;;15.50;99.90;;;;;;5101845;28;20489;-63
2022/06/11 12:24:16;;;;;;;2.00;1.43;;;15.50;99.90;;;;;;5088329;28;20437;-64
2022/06/11 12:26:52;;;;;;;1.50;1.40;;;15.50;99.90;;;;;;5098837;28;20473;-64
2022/06/11 12:29:48;;;;;;;2.87;1.73;;;15.50;99.90;;;;;;5102409;28;20470;-63
2022/06/11 12:36:30;;;;;;;2.27;1.70;;;15.70;99.90;;;;;;5100935;28;20723;-63
2022/06/11 12:39:08;;;;;;;1.83;1.73;;;15.60;99.90;;;;;;5100623;28;20526;-63
2022/06/11 12:41:49;;;;;;;2.07;1.87;;;15.60;99.90;;;;;;5102238;28;20533;-63
2022/06/11 12:44:41;;;;;;;2.27;1.60;;;15.60;99.90;;;;;;5101810;28;20549;-64
2022/06/11 12:47:40;;;;;;;2.17;1.73;;;15.60;99.90;;;;;;5101441;28;20457;-63
2022/06/11 12:50:45;;;;;;;1.33;1.30;;;15.50;99.90;;;;;;5101196;28;20486;-63
2022/06/11 12:53:25;;;;;;;2.10;1.90;;;15.50;99.90;;;;;;5101633;28;20417;-63
2022/06/11 12:56:06;;;;;;;3.20;1.73;;;15.60;99.90;;;;;;5094249;28;20425;-64
2022/06/11 12:58:58;;;;;;;1.07;0.97;;;15.60;99.90;;;;;;5101315;28;20458;-63
2022/06/11 13:01:34;;;;;;;2.30;1.60;;;15.60;99.90;;;;;;5101512;28;20432;-63
2022/06/11 13:04:31;;;;;;;1.20;1.10;;;15.60;99.90;;;;;;5095945;28;20421;-63
2022/06/11 13:07:19;;;;;;;1.37;1.20;;;15.70;99.90;;;;;;5101053;28;20451;-63
2022/06/11 13:10:16;;;;;;;1.77;1.30;;;15.70;99.90;;;;;;5099552;28;20478;-63
2022/06/11 13:13:19;;;;;;;2.23;1.90;;;15.70;99.90;;;;;;5139368;27;20510;-63
2022/06/11 13:15:59;;;;;;;1.57;1.47;;;15.70;99.90;;;;;;5140924;27;20449;-63
2022/06/11 13:18:51;;;;;;;2.40;1.63;;;15.70;99.90;;;;;;5144705;27;20437;-63
2022/06/11 13:21:31;;;;;;;2.90;1.50;;;15.70;99.90;;;;;;5144405;27;20441;-63
2022/06/11 13:24:11;;;;;;;1.30;1.20;;;15.70;99.90;;;;;;5132384;27;21018;-63
2022/06/11 13:26:56;;;;;;;1.73;1.37;;;15.70;99.90;;;;;;5142624;27;20422;-63
2022/06/11 13:30:34;;;;;;;1.73;1.27;;;15.70;99.90;;;;;;5144731;27;20448;-63
2022/06/11 13:33:22;;;;;;;1.50;1.40;;;15.80;99.90;;;;;;5061559;28;20471;-63
2022/06/11 13:36:02;;;;;;;2.17;1.40;;;15.80;99.90;;;;;;5077704;28;20487;-63
2022/06/11 13:38:45;;;;;;;2.07;1.87;;;15.80;99.90;;;;;;5080257;28;20455;-63
2022/06/11 13:41:24;;;;;;;1.73;1.50;;;15.80;99.90;;;;;;5080424;28;20455;-63
2022/06/11 13:44:28;;;;;;;1.90;1.70;;;15.90;99.90;;;;;;5079586;28;20485;-63
2022/06/11 13:47:11;;;;;;;2.37;1.80;;;15.90;99.90;;;;;;5079860;28;20460;-64
2022/06/11 13:49:56;;;;;;;1.60;1.33;;;15.90;99.90;;;;;;5079503;28;20480;-63
2022/06/11 13:55:25;;;;;;;2.00;1.60;;;16.00;99.90;;;;;;5078883;28;20462;-63
2022/06/11 13:58:11;;;;;;;2.47;2.20;;;16.00;99.90;;;;;;5080002;28;20418;-64
2022/06/11 14:01:00;;;;;;;1.50;1.40;;;16.00;99.90;;;;;;5080678;28;20597;-63
2022/06/11 14:04:30;;;;;;;1.60;1.50;;;16.00;99.90;;;;;;5096687;27;20560;-63
2022/06/11 14:07:03;;;;;;;1.20;1.10;;;16.10;99.90;;;;;;5143917;27;20430;-63
2022/06/11 14:12:49;;;;;;;3.07;1.37;;;16.10;99.90;;;;;;5144183;27;20445;-63
2022/06/11 14:16:18;;;;;;;1.60;1.37;;;16.20;99.90;;;;;;5143295;27;20437;-63
2022/06/11 14:22:45;;;;;;;1.90;1.70;;;16.30;99.90;;;;;;5080205;28;20417;-64
2022/06/11 14:25:40;;;;;;;1.40;1.30;;;16.50;99.90;;;;;;5037664;28;20419;-62
2022/06/11 14:28:47;;;;;;;2.03;1.57;;;16.50;99.90;;;;;;5039653;28;20547;-62
2022/06/11 14:31:49;;;;;;;1.50;1.40;;;16.60;99.90;;;;;;5039147;28;20489;-64
2022/06/11 14:34:28;;;;;;;1.53;1.30;;;16.70;99.90;;;;;;5039838;28;20514;-64
2022/06/11 14:37:20;;;;;;;1.90;1.40;;;16.80;99.90;;;;;;5039059;28;20480;-64
2022/06/11 14:40:03;;;;;;;1.90;1.30;;;16.80;99.90;;;;;;5038689;28;20446;-62
2022/06/11 14:43:02;;;;;;;1.77;1.47;;;16.80;99.90;;;;;;5039543;28;20535;-62
2022/06/11 14:45:55;;;;;;;2.30;1.97;;;16.80;99.90;;;;;;5038729;28;20948;-64